createdAt,value
2023-04-07T00:01:12.708Z,84.15
2023-04-07T00:04:15.810Z,84.71
2023-04-07T00:07:18.813Z,85.22
2023-04-07T00:10:21.838Z,85.47
2023-04-07T00:13:24.677Z,85.03
2023-04-07T00:16:27.778Z,85.19
2023-04-07T00:19:38.132Z,85.48
2023-04-07T00:22:43.299Z,85.98
2023-04-07T00:25:48.319Z,85.90
2023-04-07T00:28:51.259Z,86.27
2023-04-07T00:31:54.688Z,86.96
2023-04-07T00:34:57.574Z,86.45
2023-04-07T00:38:00.406Z,86.78
2023-04-07T00:41:03.214Z,86.37
2023-04-07T00:44:06.042Z,85.96
2023-04-07T00:47:09.013Z,85.93
2023-04-07T00:50:12.034Z,86.62
2023-04-07T00:53:16.437Z,86.39
2023-04-07T00:56:19.844Z,86.08
2023-04-07T00:59:22.915Z,86.10
2023-04-07T01:02:37.560Z,86.33
2023-04-07T01:05:56.755Z,86.33
2023-04-07T01:09:13.918Z,86.34
2023-04-07T01:12:47.520Z,86.35
2023-04-07T01:15:53.124Z,86.49
2023-04-07T01:19:01.894Z,86.99
2023-04-07T01:22:13.404Z,87.36
2023-04-07T01:25:33.223Z,87.95
2023-04-07T01:29:08.888Z,87.84
2023-04-07T01:32:12.804Z,87.82
2023-04-07T01:35:17.052Z,88.10
2023-04-07T01:38:22.702Z,88.07
2023-04-07T01:41:26.940Z,87.95
2023-04-07T01:44:32.933Z,87.97
2023-04-07T01:47:39.386Z,88.32
2023-04-07T01:50:43.458Z,88.59
2023-04-07T01:53:47.989Z,88.72
2023-04-07T01:56:51.572Z,88.96
2023-04-07T01:59:55.700Z,89.37
2023-04-07T02:03:03.984Z,89.65
2023-04-07T02:06:08.844Z,89.70
2023-04-07T02:09:16.221Z,89.88
2023-04-07T02:12:20.873Z,89.95
2023-04-07T02:15:25.698Z,89.92
2023-04-07T02:18:32.548Z,90.04
2023-04-07T02:21:36.620Z,90.25
2023-04-07T02:24:42.967Z,90.50
2023-04-07T02:27:47.131Z,90.54
2023-04-07T02:30:50.257Z,90.46
2023-04-07T02:33:53.305Z,90.51
2023-04-07T02:36:57.429Z,90.69
2023-04-07T02:40:01.110Z,90.74
2023-04-07T02:43:05.959Z,90.81
2023-04-07T02:46:09.612Z,90.99
2023-04-07T02:49:13.237Z,91.10
2023-04-07T02:52:17.473Z,91.19
2023-04-07T02:55:20.492Z,91.19
2023-04-07T02:58:25.596Z,91.14
2023-04-07T03:01:28.799Z,91.32
2023-04-07T03:04:32.469Z,91.59
2023-04-07T03:07:36.108Z,91.55
2023-04-07T03:10:39.281Z,91.62
2023-04-07T03:13:42.535Z,91.62
2023-04-07T03:16:45.847Z,91.66
2023-04-07T03:19:52.104Z,91.65
2023-04-07T03:22:55.562Z,91.69
2023-04-07T03:25:58.711Z,91.79
2023-04-07T03:29:04.484Z,91.89
2023-04-07T03:32:07.692Z,91.91
2023-04-07T03:35:13.211Z,92.00
2023-04-07T03:38:16.815Z,92.23
2023-04-07T03:41:36.895Z,92.23
2023-04-07T03:44:40.976Z,92.08
2023-04-07T03:47:45.433Z,92.03
2023-04-07T03:50:48.510Z,91.99
2023-04-07T03:53:51.849Z,91.99
2023-04-07T03:56:55.325Z,91.97
2023-04-07T03:59:58.453Z,91.88
2023-04-07T04:03:02.315Z,91.91
2023-04-07T04:06:05.993Z,92.05
2023-04-07T04:09:09.149Z,92.04
2023-04-07T04:12:12.852Z,91.86
2023-04-07T04:15:24.728Z,91.76
2023-04-07T04:18:28.666Z,91.73
2023-04-07T04:21:36.859Z,91.71
2023-04-07T04:25:35.555Z,91.59
2023-04-07T04:28:39.089Z,91.54
2023-04-07T04:31:42.243Z,91.46
2023-04-07T04:34:45.834Z,91.41
2023-04-07T04:37:48.988Z,91.38
2023-04-07T04:40:52.176Z,91.32
2023-04-07T04:43:55.338Z,91.26
2023-04-07T04:46:58.518Z,91.24
2023-04-07T04:50:01.609Z,91.24
2023-04-07T04:53:04.711Z,91.15
2023-04-07T04:56:09.363Z,91.11
2023-04-07T04:59:12.547Z,91.06
2023-04-07T05:02:16.504Z,90.99
2023-04-07T05:05:20.271Z,90.89
2023-04-07T05:08:23.564Z,90.84
2023-04-07T05:11:26.798Z,90.75
2023-04-07T05:14:29.761Z,90.70
2023-04-07T05:17:33.435Z,90.60
2023-04-07T05:20:36.727Z,90.54
2023-04-07T05:23:39.704Z,90.47
2023-04-07T05:26:42.588Z,90.45
2023-04-07T05:29:45.870Z,90.39
2023-04-07T05:32:48.717Z,90.37
2023-04-07T05:35:51.752Z,90.31
2023-04-07T05:38:54.774Z,90.19
2023-04-07T05:41:58.322Z,90.19
2023-04-07T05:45:01.312Z,90.05
2023-04-07T05:48:04.644Z,90.03
2023-04-07T05:51:07.590Z,89.99
2023-04-07T05:54:11.270Z,89.89
2023-04-07T05:57:14.254Z,89.78
2023-04-07T06:00:17.432Z,89.39
2023-04-07T06:03:20.627Z,89.17
2023-04-07T06:06:23.639Z,88.88
2023-04-07T06:09:26.764Z,88.74
2023-04-07T06:12:29.619Z,88.43
2023-04-07T06:15:32.594Z,88.06
2023-04-07T06:18:35.676Z,87.71
2023-04-07T06:21:40.125Z,86.96
2023-04-07T06:24:43.120Z,85.63
2023-04-07T06:27:46.242Z,84.90
2023-04-07T06:30:49.324Z,84.08
2023-04-07T06:33:52.167Z,83.92
2023-04-07T06:36:57.410Z,83.67
2023-04-07T06:40:01.036Z,83.58
2023-04-07T06:43:04.296Z,83.14
2023-04-07T06:46:07.084Z,82.49
2023-04-07T06:49:09.968Z,81.98
2023-04-07T06:52:12.857Z,80.36
2023-04-07T06:55:15.837Z,81.12
2023-04-07T06:58:18.671Z,80.45
2023-04-07T07:01:22.581Z,80.60
2023-04-07T07:04:25.627Z,80.54
2023-04-07T07:07:28.673Z,79.43
2023-04-07T07:10:31.486Z,78.85
2023-04-07T07:13:34.421Z,78.85
2023-04-07T07:16:37.425Z,79.24
2023-04-07T07:19:40.255Z,79.19
2023-04-07T07:22:43.194Z,79.16
2023-04-07T07:25:46.017Z,79.44
2023-04-07T07:28:48.884Z,79.01
2023-04-07T07:31:52.303Z,78.91
2023-04-07T07:34:55.881Z,79.17
2023-04-07T07:37:58.978Z,79.26
2023-04-07T07:41:02.578Z,79.34
2023-04-07T07:44:05.474Z,79.45
2023-04-07T07:47:08.501Z,79.45
2023-04-07T07:50:11.452Z,78.88
2023-04-07T07:53:14.323Z,78.73
2023-04-07T07:56:17.275Z,78.14
2023-04-07T07:59:20.135Z,78.52
2023-04-07T08:02:23.187Z,77.79
2023-04-07T08:05:26.445Z,77.37
2023-04-07T08:08:29.354Z,76.65
2023-04-07T08:11:32.187Z,76.63
2023-04-07T08:14:35.173Z,76.82
2023-04-07T08:17:38.504Z,76.58
2023-04-07T08:20:41.770Z,76.24
2023-04-07T08:23:44.774Z,76.34
2023-04-07T08:26:47.606Z,75.23
2023-04-07T08:30:00.468Z,75.10
2023-04-07T08:33:04.366Z,74.51
2023-04-07T08:36:07.573Z,73.82
2023-04-07T08:39:10.671Z,73.94
2023-04-07T08:42:15.021Z,73.50
2023-04-07T08:45:19.268Z,74.12
2023-04-07T08:48:25.867Z,73.94
2023-04-07T08:51:31.932Z,74.19
2023-04-07T08:54:35.305Z,73.75
2023-04-07T08:57:38.625Z,73.22
2023-04-07T09:00:45.979Z,73.18
2023-04-07T09:03:50.205Z,73.41
2023-04-07T09:06:53.370Z,73.13
2023-04-07T09:09:57.257Z,72.13
2023-04-07T09:13:00.205Z,71.16
2023-04-07T09:16:03.479Z,71.77
2023-04-07T09:19:07.375Z,72.42
2023-04-07T09:22:12.718Z,72.68
2023-04-07T09:25:17.032Z,72.43
2023-04-07T09:28:19.891Z,72.74
2023-04-07T09:31:28.344Z,72.31
2023-04-07T09:34:36.219Z,72.43
2023-04-07T09:37:39.194Z,72.81
2023-04-07T09:40:42.453Z,74.12
2023-04-07T09:43:47.064Z,74.70
2023-04-07T09:46:56.495Z,74.84
2023-04-07T09:50:06.644Z,75.26
2023-04-07T09:53:09.880Z,75.70
2023-04-07T09:56:13.950Z,76.04
2023-04-07T09:59:17.586Z,76.13
2023-04-07T10:02:23.111Z,76.32
2023-04-07T10:05:26.487Z,76.52
2023-04-07T10:08:32.446Z,77.06
2023-04-07T10:11:37.698Z,77.10
2023-04-07T10:14:40.962Z,77.39
2023-04-07T10:17:48.755Z,78.29
2023-04-07T10:20:54.633Z,79.48
2023-04-07T10:24:23.449Z,79.63
2023-04-07T10:27:35.942Z,79.42
2023-04-07T10:30:39.974Z,79.44
2023-04-07T10:33:53.187Z,79.31
2023-04-07T10:37:13.469Z,79.29
2023-04-07T10:40:19.639Z,79.39
2023-04-07T10:43:42.281Z,79.68
2023-04-07T10:46:45.300Z,79.90
2023-04-07T10:50:13.188Z,79.87
2023-04-07T10:53:16.527Z,80.16
2023-04-07T10:56:19.457Z,79.91
2023-04-07T10:59:27.897Z,80.05
2023-04-07T11:02:32.549Z,80.14
2023-04-07T11:05:38.911Z,80.30
2023-04-07T11:08:48.230Z,80.10
2023-04-07T11:11:52.631Z,80.04
2023-04-07T11:14:56.693Z,79.80
2023-04-07T11:18:17.762Z,79.87
2023-04-07T11:21:20.629Z,79.87
2023-04-07T11:24:39.479Z,80.38
2023-04-07T11:27:44.782Z,80.81
2023-04-07T11:30:52.863Z,80.64
2023-04-07T11:33:59.778Z,80.22
2023-04-07T11:37:27.495Z,80.29
2023-04-07T11:40:37.315Z,80.42
2023-04-07T11:43:42.291Z,80.53
2023-04-07T11:47:00.609Z,81.15
2023-04-07T11:50:03.735Z,80.76
2023-04-07T11:53:06.853Z,80.82
2023-04-07T11:56:19.064Z,80.78
2023-04-07T11:59:23.991Z,81.04
2023-04-07T12:02:38.005Z,81.10
2023-04-07T12:05:48.048Z,81.24
2023-04-07T12:08:51.000Z,81.61
2023-04-07T12:11:54.059Z,81.67
2023-04-07T12:14:57.052Z,81.55
2023-04-07T12:18:01.140Z,82.07
2023-04-07T12:21:04.956Z,82.13
2023-04-07T12:24:07.864Z,81.63
2023-04-07T12:27:11.171Z,81.41
2023-04-07T12:30:14.156Z,81.96
2023-04-07T12:33:17.161Z,82.05
2023-04-07T12:36:20.115Z,81.47
2023-04-07T12:39:22.993Z,81.65
2023-04-07T12:42:26.419Z,81.58
2023-04-07T12:45:31.437Z,81.51
2023-04-07T12:48:34.779Z,81.71
2023-04-07T12:51:40.130Z,82.18
2023-04-07T12:54:44.548Z,81.98
2023-04-07T12:57:47.582Z,82.04
2023-04-07T13:00:50.622Z,82.45
2023-04-07T13:03:54.009Z,82.43
2023-04-07T13:06:57.269Z,82.55
2023-04-07T13:10:00.183Z,82.70
2023-04-07T13:13:03.104Z,82.31
2023-04-07T13:16:06.092Z,82.57
2023-04-07T13:19:09.649Z,82.51
2023-04-07T13:22:18.281Z,82.22
2023-04-07T13:25:24.485Z,82.53
2023-04-07T13:28:28.138Z,82.64
2023-04-07T13:31:31.074Z,82.91
2023-04-07T13:34:35.859Z,82.40
2023-04-07T13:37:38.768Z,82.76
2023-04-07T13:40:41.970Z,81.93
2023-04-07T13:43:44.934Z,82.14
2023-04-07T13:46:48.189Z,81.99
2023-04-07T13:49:54.684Z,82.22
2023-04-07T13:52:57.714Z,82.00
2023-04-07T13:56:01.241Z,82.25
2023-04-07T13:59:06.147Z,82.37
2023-04-07T14:02:09.179Z,82.31
2023-04-07T14:05:12.337Z,82.24
2023-04-07T14:08:15.505Z,82.43
2023-04-07T14:11:38.292Z,82.57
2023-04-07T14:14:41.314Z,82.57
2023-04-07T14:17:44.141Z,82.37
2023-04-07T14:20:47.193Z,82.47
2023-04-07T14:23:50.250Z,82.57
2023-04-07T14:26:54.768Z,82.74
2023-04-07T14:29:59.617Z,82.90
2023-04-07T14:33:04.937Z,83.30
2023-04-07T14:36:08.197Z,83.43
2023-04-07T14:39:12.602Z,83.91
2023-04-07T14:42:16.350Z,84.47
2023-04-07T14:45:19.318Z,84.45
2023-04-07T14:48:22.316Z,84.89
2023-04-07T14:51:25.207Z,85.10
2023-04-07T14:54:28.477Z,85.24
2023-04-07T14:57:31.527Z,85.34
2023-04-07T15:00:35.107Z,85.51
2023-04-07T15:03:38.775Z,85.63
2023-04-07T15:06:43.044Z,85.76
2023-04-07T15:09:48.411Z,85.88
2023-04-07T15:12:51.269Z,86.12
2023-04-07T15:15:54.265Z,86.47
2023-04-07T15:18:57.148Z,86.68
2023-04-07T15:21:59.992Z,87.55
2023-04-07T15:25:05.818Z,88.50
2023-04-07T15:28:08.880Z,88.30
2023-04-07T15:31:12.077Z,88.68
2023-04-07T15:34:14.846Z,88.01
2023-04-07T15:37:18.905Z,87.66
2023-04-07T15:40:21.914Z,88.55
2023-04-07T15:43:25.058Z,88.61
2023-04-07T15:46:28.079Z,89.17
2023-04-07T15:49:31.019Z,89.39
2023-04-07T15:52:33.952Z,89.12
2023-04-07T15:55:39.556Z,88.95
2023-04-07T15:58:45.238Z,88.68
2023-04-07T16:01:48.644Z,88.07
2023-04-07T16:04:52.331Z,87.92
2023-04-07T16:07:55.539Z,87.90
2023-04-07T16:10:58.394Z,87.90
2023-04-07T16:14:01.399Z,87.82
2023-04-07T16:17:04.230Z,87.68
2023-04-07T16:20:14.898Z,87.77
2023-04-07T16:23:17.864Z,87.77
2023-04-07T16:26:21.343Z,87.63
2023-04-07T16:29:24.164Z,87.62
2023-04-07T16:32:27.116Z,87.62
2023-04-07T16:35:32.006Z,87.65
2023-04-07T16:38:35.132Z,87.66
2023-04-07T16:41:38.052Z,87.63
2023-04-07T16:44:41.235Z,87.65
2023-04-07T16:47:49.068Z,87.83
2023-04-07T16:50:53.258Z,88.24
2023-04-07T16:53:56.155Z,88.52
2023-04-07T16:56:59.516Z,88.32
2023-04-07T17:00:02.750Z,87.95
2023-04-07T17:03:06.212Z,88.18
2023-04-07T17:06:09.518Z,88.36
2023-04-07T17:09:19.261Z,88.47
2023-04-07T17:13:23.389Z,88.53
2023-04-07T17:16:15.637Z,88.61
2023-04-07T17:19:19.868Z,88.67
2023-04-07T17:22:23.576Z,88.63
2023-04-07T17:25:27.973Z,88.71
2023-04-07T17:28:31.743Z,88.78
2023-04-07T17:31:37.884Z,88.94
2023-04-07T17:34:41.189Z,89.22
2023-04-07T17:37:44.413Z,88.94
2023-04-07T17:40:47.729Z,89.20
2023-04-07T17:43:51.159Z,88.74
2023-04-07T17:46:54.891Z,89.00
2023-04-07T17:49:58.971Z,89.47
2023-04-07T17:53:02.094Z,89.69
2023-04-07T17:56:06.012Z,90.34
2023-04-07T17:59:11.058Z,90.72
2023-04-07T18:02:14.444Z,90.81
2023-04-07T18:05:18.126Z,91.02
2023-04-07T18:08:21.396Z,90.98
2023-04-07T18:11:24.762Z,90.68
2023-04-07T18:14:29.117Z,90.19
2023-04-07T18:17:32.545Z,89.86
2023-04-07T18:20:36.454Z,89.57
2023-04-07T18:23:39.786Z,89.46
2023-04-07T18:26:46.566Z,89.39
2023-04-07T18:29:50.667Z,89.58
2023-04-07T18:32:56.970Z,89.43
2023-04-07T18:36:04.236Z,89.42
2023-04-07T18:39:09.097Z,89.59
2023-04-07T18:42:12.723Z,89.51
2023-04-07T18:45:16.368Z,89.05
2023-04-07T18:48:20.342Z,88.74
2023-04-07T18:51:23.490Z,88.83
2023-04-07T18:54:27.912Z,88.93
2023-04-07T18:57:30.864Z,89.03
2023-04-07T19:00:34.152Z,88.87
2023-04-07T19:03:37.380Z,88.93
2023-04-07T19:06:40.715Z,89.14
2023-04-07T19:09:44.111Z,88.74
2023-04-07T19:12:47.242Z,88.99
2023-04-07T19:15:51.709Z,88.80
2023-04-07T19:18:55.580Z,88.46
2023-04-07T19:21:58.793Z,88.24
2023-04-07T19:25:01.913Z,88.26
2023-04-07T19:28:06.102Z,88.39
2023-04-07T19:31:09.520Z,88.28
2023-04-07T19:34:12.397Z,89.03
2023-04-07T19:37:16.325Z,89.31
2023-04-07T19:40:19.664Z,89.39
2023-04-07T19:43:22.567Z,89.29
2023-04-07T19:46:25.786Z,89.75
2023-04-07T19:49:28.847Z,90.08
2023-04-07T19:52:33.229Z,89.43
2023-04-07T19:55:37.290Z,89.23
2023-04-07T19:58:40.119Z,89.13
2023-04-07T20:01:43.193Z,89.18
2023-04-07T20:04:46.431Z,89.32
2023-04-07T20:07:49.311Z,89.65
2023-04-07T20:10:52.875Z,89.62
2023-04-07T20:13:56.113Z,89.81
2023-04-07T20:16:59.128Z,89.10
2023-04-07T20:20:02.031Z,89.14
2023-04-07T20:23:04.934Z,88.96
2023-04-07T20:26:09.743Z,89.37
2023-04-07T20:29:12.645Z,89.06
2023-04-07T20:32:15.698Z,88.82
2023-04-07T20:35:18.669Z,88.79
2023-04-07T20:38:21.695Z,89.08
2023-04-07T20:41:24.499Z,89.07
2023-04-07T20:44:35.274Z,88.93
2023-04-07T20:47:42.418Z,89.63
2023-04-07T20:50:45.327Z,89.82
2023-04-07T20:53:48.480Z,89.73
2023-04-07T20:56:51.416Z,89.74
2023-04-07T20:59:54.303Z,89.59
2023-04-07T21:02:57.385Z,89.66
2023-04-07T21:06:00.342Z,89.73
2023-04-07T21:09:05.705Z,89.89
2023-04-07T21:12:08.711Z,90.00
2023-04-07T21:15:11.978Z,90.04
2023-04-07T21:18:15.083Z,89.99
2023-04-07T21:21:17.988Z,89.87
2023-04-07T21:24:21.844Z,89.78
2023-04-07T21:27:24.743Z,89.79
2023-04-07T21:30:27.581Z,89.84
2023-04-07T21:33:30.616Z,89.87
2023-04-07T21:36:33.894Z,89.91
2023-04-07T21:39:36.708Z,90.00
2023-04-07T21:42:39.585Z,90.05
2023-04-07T21:45:42.616Z,89.93
2023-04-07T21:48:45.777Z,89.80
2023-04-07T21:51:49.361Z,89.84
2023-04-07T21:54:52.699Z,89.92
2023-04-07T21:57:55.592Z,89.92
2023-04-07T22:00:58.431Z,89.81
2023-04-07T22:04:01.458Z,89.59
2023-04-07T22:07:05.505Z,89.48
2023-04-07T22:10:09.067Z,89.59
2023-04-07T22:13:11.889Z,89.76
2023-04-07T22:16:14.885Z,89.81
2023-04-07T22:19:18.460Z,89.88
2023-04-07T22:22:21.385Z,89.96
2023-04-07T22:25:24.551Z,90.13
2023-04-07T22:28:27.438Z,90.25
2023-04-07T22:31:30.465Z,90.32
2023-04-07T22:34:34.633Z,90.37
2023-04-07T22:37:37.805Z,90.27
2023-04-07T22:40:42.067Z,90.25
2023-04-07T22:43:45.071Z,90.37
2023-04-07T22:46:49.043Z,90.43
2023-04-07T22:49:52.022Z,90.41
2023-04-07T22:52:55.454Z,90.43
2023-04-07T22:55:58.549Z,90.47
2023-04-07T22:59:05.812Z,90.50
2023-04-07T23:02:09.066Z,90.56
2023-04-07T23:05:12.435Z,90.42
2023-04-07T23:08:15.640Z,90.37
2023-04-07T23:11:22.495Z,90.44
2023-04-07T23:14:25.841Z,90.31
2023-04-07T23:17:29.894Z,89.86
2023-04-07T23:20:33.117Z,89.43
2023-04-07T23:23:37.343Z,89.39
2023-04-07T23:26:40.368Z,89.42
2023-04-07T23:29:43.375Z,89.65
2023-04-07T23:32:46.966Z,89.86
2023-04-07T23:35:50.783Z,90.22
2023-04-07T23:38:56.350Z,90.49
2023-04-07T23:41:59.383Z,90.70
2023-04-07T23:45:02.554Z,90.85
2023-04-07T23:48:06.292Z,90.90
2023-04-07T23:51:09.384Z,91.00
2023-04-07T23:54:12.532Z,91.18
2023-04-07T23:57:15.631Z,91.53
